Time;durP1;ratioP1;P1;durP2;ratioP2;P2;SDS_P1;SDS_P2;PMS_P1;PMS_P2;Temp;Humidity;BMP_temperature;BMP_pressure;BME280_temperature;BME280_humidity;BME280_pressure;Samples;Min_cycle;Max_cycle;Signal;HPM_P1;HPM_P2
2023/11/08 00:01:12;;;;;;;1.23;0.47;;;8.30;99.90;;;;;;4101729;29;20264;-87
2023/11/08 00:03:15;;;;;;;1.88;0.40;;;8.40;99.90;;;;;;4101803;29;20218;-89
2023/11/08 00:05:15;;;;;;;2.45;0.85;;;8.40;99.90;;;;;;4102365;28;20185;-91
2023/11/08 00:07:16;;;;;;;0.20;0.20;;;8.40;99.90;;;;;;4101940;29;20639;-95
2023/11/08 00:09:17;;;;;;;1.30;0.55;;;8.40;99.90;;;;;;4102189;28;20209;-93
2023/11/08 00:11:23;;;;;;;3.05;0.52;;;8.50;99.90;;;;;;4102003;28;20246;-87
2023/11/08 00:13:24;;;;;;;0.98;0.40;;;8.50;99.90;;;;;;4117609;28;20182;-86
2023/11/08 00:15:25;;;;;;;1.02;0.40;;;8.40;99.90;;;;;;4117555;28;20649;-87
2023/11/08 00:17:25;;;;;;;0.40;0.30;;;8.40;99.90;;;;;;4118314;28;20674;-92
2023/11/08 00:19:26;;;;;;;1.20;0.20;;;8.40;99.90;;;;;;4102035;29;20191;-87
2023/11/08 00:21:30;;;;;;;0.10;0.10;;;8.40;99.90;;;;;;4118080;28;20698;-87
2023/11/08 00:23:30;;;;;;;10.88;1.20;;;8.40;99.90;;;;;;4117944;28;20228;-87
2023/11/08 00:25:31;;;;;;;1.25;0.63;;;8.40;99.90;;;;;;4102061;29;20258;-95
2023/11/08 00:27:32;;;;;;;0.60;0.40;;;8.30;99.90;;;;;;4117680;28;20639;-92
2023/11/08 00:29:33;;;;;;;0.82;0.30;;;8.30;99.90;;;;;;4117573;28;20171;-89
2023/11/08 00:31:34;;;;;;;0.32;0.28;;;8.30;99.90;;;;;;4117486;28;20190;-94
2023/11/08 00:33:35;;;;;;;2.08;0.50;;;8.30;99.90;;;;;;4117764;28;20193;-93
2023/11/08 00:35:36;;;;;;;2.47;0.40;;;8.30;99.90;;;;;;4101592;28;20198;-87
2023/11/08 00:37:37;;;;;;;4.95;0.65;;;8.20;99.90;;;;;;4117497;28;20694;-92
2023/11/08 00:39:38;;;;;;;2.67;0.35;;;8.10;99.90;;;;;;4101297;29;20325;-86
2023/11/08 00:41:39;;;;;;;0.20;0.10;;;8.10;99.90;;;;;;4101379;29;20175;-94
2023/11/08 00:43:40;;;;;;;1.75;0.35;;;8.00;99.90;;;;;;4117359;28;20221;-88
2023/11/08 00:45:41;;;;;;;0.13;0.10;;;8.10;99.90;;;;;;4117943;28;20185;-87
2023/11/08 00:47:43;;;;;;;1.60;0.63;;;8.20;99.90;;;;;;4101579;29;20718;-94
2023/11/08 00:49:44;;;;;;;4.50;0.28;;;8.10;99.90;;;;;;4101165;29;20214;-88
2023/11/08 00:51:45;;;;;;;3.38;0.10;;;8.10;99.90;;;;;;4101550;29;20186;-87
2023/11/08 00:53:47;;;;;;;1.42;0.05;;;8.10;99.90;;;;;;4101165;29;20215;-87
2023/11/08 00:55:48;;;;;;;1.35;0.13;;;8.10;99.90;;;;;;4101421;29;20189;-87
2023/11/08 00:57:48;;;;;;;8.70;0.32;;;8.10;99.90;;;;;;4099562;28;20195;-86
2023/11/08 00:59:49;;;;;;;0.25;0.20;;;8.10;99.90;;;;;;4117290;28;20190;-93
2023/11/08 01:01:50;;;;;;;0.75;0.73;;;8.10;99.90;;;;;;4101114;29;20669;-87
2023/11/08 01:03:54;;;;;;;0.63;0.32;;;8.10;99.90;;;;;;4101303;29;20233;-91
2023/11/08 01:05:56;;;;;;;2.20;0.17;;;8.10;99.90;;;;;;4101015;29;20189;-87
2023/11/08 01:07:57;;;;;;;7.00;0.52;;;8.30;99.90;;;;;;4101367;29;20715;-94
2023/11/08 01:09:58;;;;;;;2.83;1.60;;;8.20;99.90;;;;;;4116888;28;20171;-87
2023/11/08 01:11:59;;;;;;;0.25;0.17;;;8.20;99.90;;;;;;4101142;29;20278;-87
2023/11/08 01:14:01;;;;;;;0.98;0.17;;;8.20;99.90;;;;;;4116857;28;20202;-87
2023/11/08 01:16:08;;;;;;;1.17;0.17;;;8.20;99.90;;;;;;4116842;28;20772;-88
2023/11/08 01:18:10;;;;;;;1.20;0.20;;;8.20;99.90;;;;;;4100760;29;20218;-87
2023/11/08 01:20:11;;;;;;;1.95;0.10;;;8.20;99.90;;;;;;4101157;29;20282;-87
2023/11/08 01:22:12;;;;;;;1.35;0.40;;;8.20;99.90;;;;;;4116731;28;20189;-87
2023/11/08 01:24:13;;;;;;;2.08;0.30;;;8.20;99.90;;;;;;4116660;28;20226;-87
2023/11/08 01:26:14;;;;;;;0.65;0.20;;;8.20;99.90;;;;;;4100779;29;20187;-91
2023/11/08 01:28:15;;;;;;;1.45;0.20;;;8.10;99.90;;;;;;4116616;28;20206;-93
2023/11/08 01:30:17;;;;;;;0.30;0.10;;;8.10;99.90;;;;;;4101446;29;20183;-88
2023/11/08 01:32:18;;;;;;;1.63;0.45;;;8.10;99.90;;;;;;4100901;29;20580;-90
2023/11/08 01:34:19;;;;;;;6.15;0.52;;;8.10;99.90;;;;;;4100951;29;20187;-88
2023/11/08 01:36:20;;;;;;;2.35;0.40;;;8.10;99.90;;;;;;4100816;28;20186;-90
2023/11/08 01:38:21;;;;;;;0.55;0.30;;;8.00;99.90;;;;;;4100777;29;20243;-87
2023/11/08 01:40:21;;;;;;;3.08;0.40;;;8.00;99.90;;;;;;4100336;29;20183;-87
2023/11/08 01:42:22;;;;;;;8.57;0.47;;;7.90;99.90;;;;;;4100638;29;20280;-86
2023/11/08 01:44:23;;;;;;;1.88;0.40;;;7.90;99.90;;;;;;4117138;28;20225;-93
2023/11/08 01:46:26;;;;;;;1.95;0.88;;;7.90;99.90;;;;;;4100828;28;20179;-90
2023/11/08 01:48:27;;;;;;;0.98;0.20;;;7.90;99.90;;;;;;4100999;29;20674;-87
2023/11/08 01:50:28;;;;;;;0.98;0.30;;;8.00;99.90;;;;;;4116668;28;20265;-87
2023/11/08 01:52:30;;;;;;;0.25;0.25;;;7.90;99.90;;;;;;4116350;28;20194;-87
2023/11/08 01:54:30;;;;;;;1.10;0.35;;;7.90;99.90;;;;;;4100625;28;20187;-87
2023/11/08 01:56:32;;;;;;;2.00;0.30;;;7.90;99.90;;;;;;4100396;29;20253;-87
2023/11/08 01:58:38;;;;;;;0.25;0.08;;;7.90;99.90;;;;;;4100195;28;20257;-95
2023/11/08 02:00:41;;;;;;;0.95;0.30;;;7.90;99.90;;;;;;4116327;28;20178;-89
2023/11/08 02:02:46;;;;;;;2.30;0.70;;;7.70;99.90;;;;;;4100499;29;20339;-87
2023/11/08 02:04:47;;;;;;;0.10;0.10;;;7.80;99.90;;;;;;4100407;29;20201;-87
2023/11/08 02:06:49;;;;;;;0.95;0.17;;;7.80;99.90;;;;;;4100162;29;20635;-94
2023/11/08 02:08:50;;;;;;;0.30;0.20;;;7.80;99.90;;;;;;4099948;28;20199;-86
2023/11/08 02:10:50;;;;;;;1.55;0.08;;;7.90;99.90;;;;;;4116094;28;20190;-91
2023/11/08 02:12:53;;;;;;;1.65;0.50;;;7.90;99.90;;;;;;4116363;28;20214;-89
2023/11/08 02:15:00;;;;;;;2.45;0.60;;;7.90;99.90;;;;;;4099646;29;20198;-86
2023/11/08 02:17:01;;;;;;;0.38;0.35;;;7.90;99.90;;;;;;4099921;29;20190;-87
2023/11/08 02:19:05;;;;;;;8.30;0.40;;;7.90;99.90;;;;;;4099919;29;20186;-93
2023/11/08 02:21:06;;;;;;;0.85;0.20;;;7.90;99.90;;;;;;4115919;28;20179;-87
2023/11/08 02:23:07;;;;;;;0.90;0.20;;;7.90;99.90;;;;;;4116176;28;20213;-87
2023/11/08 02:25:10;;;;;;;3.70;0.57;;;7.90;99.90;;;;;;4099524;29;20191;-91
2023/11/08 02:27:11;;;;;;;0.88;0.28;;;8.00;99.90;;;;;;4115900;28;20205;-87
2023/11/08 02:29:11;;;;;;;1.10;0.22;;;8.00;99.90;;;;;;4116162;28;20198;-94
2023/11/08 02:31:12;;;;;;;0.17;0.10;;;8.00;99.90;;;;;;4132795;28;20224;-88
2023/11/08 02:33:14;;;;;;;4.22;0.30;;;8.00;99.90;;;;;;4115655;28;20182;-90
2023/11/08 02:35:15;;;;;;;0.20;0.20;;;8.00;99.90;;;;;;4100193;29;20617;-90
2023/11/08 02:37:16;;;;;;;0.52;0.38;;;7.90;99.90;;;;;;4099819;28;20198;-88
2023/11/08 02:39:16;;;;;;;1.25;0.47;;;8.00;99.90;;;;;;4099804;29;20194;-87
2023/11/08 02:41:17;;;;;;;3.00;0.32;;;7.90;99.90;;;;;;4115591;28;20186;-87
2023/11/08 02:43:18;;;;;;;3.22;0.45;;;8.00;99.90;;;;;;4099178;29;20241;-93
2023/11/08 02:45:19;;;;;;;3.10;0.70;;;8.10;99.90;;;;;;4116052;28;20242;-88
2023/11/08 02:47:20;;;;;;;0.38;0.22;;;8.10;99.90;;;;;;4099642;29;20238;-93
2023/11/08 02:49:21;;;;;;;4.40;0.60;;;8.00;99.90;;;;;;4099924;29;20265;-87
2023/11/08 02:51:31;;;;;;;1.52;0.30;;;8.00;99.90;;;;;;4099250;28;20179;-91
2023/11/08 02:53:32;;;;;;;1.50;0.30;;;8.00;99.90;;;;;;4099474;28;20197;-92
2023/11/08 02:55:34;;;;;;;0.32;0.28;;;7.90;99.90;;;;;;4099242;28;20647;-90
2023/11/08 02:57:34;;;;;;;4.77;0.20;;;7.90;99.90;;;;;;4099039;29;20203;-86
2023/11/08 02:59:36;;;;;;;0.52;0.20;;;7.90;99.90;;;;;;4099591;29;20211;-93
2023/11/08 03:01:37;;;;;;;1.27;0.40;;;7.90;99.90;;;;;;4115553;28;20182;-90
2023/11/08 03:03:38;;;;;;;3.20;0.20;;;7.80;99.90;;;;;;4099194;29;20233;-89
2023/11/08 03:05:39;;;;;;;1.65;0.30;;;7.80;99.90;;;;;;4115465;28;20183;-87
2023/11/08 03:07:42;;;;;;;1.50;0.52;;;7.90;99.90;;;;;;4099306;29;20211;-93
2023/11/08 03:09:43;;;;;;;0.73;0.30;;;7.80;99.90;;;;;;4099538;29;20592;-93
2023/11/08 03:11:44;;;;;;;2.38;0.32;;;7.80;99.90;;;;;;4115183;28;20198;-93
2023/11/08 03:13:44;;;;;;;0.30;0.25;;;7.80;99.90;;;;;;4115342;28;20251;-93
2023/11/08 03:15:45;;;;;;;1.70;0.82;;;7.70;99.90;;;;;;4099374;29;20599;-86
2023/11/08 03:17:47;;;;;;;0.30;0.20;;;7.70;99.90;;;;;;4099188;29;20306;-94
2023/11/08 03:19:48;;;;;;;2.92;0.28;;;7.70;99.90;;;;;;4098550;28;20183;-86
2023/11/08 03:21:48;;;;;;;0.40;0.30;;;7.70;99.90;;;;;;4098983;29;20192;-86
2023/11/08 03:23:49;;;;;;;0.75;0.47;;;7.70;99.90;;;;;;4115296;28;20213;-92
2023/11/08 03:25:51;;;;;;;1.65;0.30;;;7.70;99.90;;;;;;4099020;29;20193;-86
2023/11/08 03:27:52;;;;;;;1.52;0.30;;;7.70;99.90;;;;;;4115299;28;20206;-89
2023/11/08 03:29:54;;;;;;;1.30;0.30;;;7.80;99.90;;;;;;4099444;29;20524;-87
2023/11/08 03:31:57;;;;;;;1.55;0.10;;;7.90;99.90;;;;;;4099223;29;20679;-87
2023/11/08 03:33:58;;;;;;;0.10;0.00;;;7.80;99.90;;;;;;4099115;29;20295;-92
2023/11/08 03:36:00;;;;;;;0.40;0.10;;;7.90;99.90;;;;;;4099511;29;20191;-94
2023/11/08 03:38:01;;;;;;;0.38;0.30;;;7.90;99.90;;;;;;4098572;29;20206;-86
2023/11/08 03:40:02;;;;;;;2.57;0.50;;;7.90;99.90;;;;;;4114713;28;20178;-91
2023/11/08 03:42:04;;;;;;;9.98;1.02;;;7.90;99.90;;;;;;4115046;28;20190;-86
2023/11/08 03:44:05;;;;;;;0.47;0.30;;;7.90;99.90;;;;;;4098807;29;20226;-87
2023/11/08 03:46:06;;;;;;;3.15;0.65;;;7.90;99.90;;;;;;4115276;28;20225;-86
2023/11/08 03:48:07;;;;;;;0.73;0.55;;;8.00;99.90;;;;;;4098906;29;20666;-92
2023/11/08 03:50:08;;;;;;;0.33;0.20;;;8.00;99.90;;;;;;4114412;28;20213;-91
2023/11/08 03:52:08;;;;;;;0.77;0.40;;;8.00;99.90;;;;;;4098889;29;20193;-87
2023/11/08 03:54:10;;;;;;;15.57;1.30;;;8.00;99.90;;;;;;4114876;28;20191;-86
2023/11/08 03:56:14;;;;;;;0.60;0.30;;;8.00;99.90;;;;;;4114499;28;20178;-87
2023/11/08 03:58:15;;;;;;;2.13;0.55;;;8.00;99.90;;;;;;4098750;29;20207;-88
2023/11/08 04:00:16;;;;;;;2.22;0.22;;;8.00;99.90;;;;;;4099015;29;20270;-94
2023/11/08 04:02:17;;;;;;;2.38;1.02;;;8.00;99.90;;;;;;4114829;28;20272;-93
2023/11/08 04:04:18;;;;;;;1.98;0.43;;;8.00;99.90;;;;;;4098552;29;20229;-87
2023/11/08 04:06:19;;;;;;;3.38;0.60;;;8.00;99.90;;;;;;4114833;28;20178;-87
2023/11/08 04:08:20;;;;;;;0.90;0.33;;;8.00;99.90;;;;;;4098441;29;20203;-89
2023/11/08 04:10:20;;;;;;;1.70;0.60;;;8.00;99.90;;;;;;4098844;28;20707;-93
2023/11/08 04:12:21;;;;;;;1.17;0.50;;;8.00;99.90;;;;;;4098570;28;20722;-93
2023/11/08 04:14:22;;;;;;;0.55;0.40;;;8.10;99.90;;;;;;4098556;29;20209;-92
2023/11/08 07:01:42;;;;;;;0.45;0.30;;;7.90;99.90;;;;;;5048609;23;20257;-95
2023/11/08 07:04:26;;;;;;;7.82;0.98;;;8.00;99.90;;;;;;4057220;29;20216;-96
2023/11/08 08:01:51;;;;;;;4.30;0.77;;;8.20;99.90;;;;;;4730316;23;21648;31
2023/11/08 08:10:15;;;;;;;0.65;0.60;;;8.30;99.90;;;;;;4092853;29;20214;-93
2023/11/08 08:16:15;;;;;;;7.40;0.93;;;8.40;99.90;;;;;;4013728;29;20315;-94
2023/11/08 08:18:45;;;;;;;2.47;0.93;;;8.60;99.90;;;;;;4010167;29;20215;-93
2023/11/08 08:21:24;;;;;;;1.77;0.70;;;8.80;99.90;;;;;;4105219;29;20179;-94
2023/11/08 08:24:03;;;;;;;3.42;0.73;;;8.90;99.90;;;;;;4090561;29;20695;-94
2023/11/08 08:26:11;;;;;;;1.60;1.20;;;8.90;99.90;;;;;;4084465;29;20203;-93
2023/11/08 08:29:03;;;;;;;9.80;0.88;;;9.00;99.90;;;;;;4102330;28;20209;-95
2023/11/08 08:38:15;;;;;;;9.10;0.93;;;9.10;99.90;;;;;;4010443;29;20283;-93
2023/11/08 08:40:18;;;;;;;4.28;1.20;;;9.20;99.90;;;;;;4014098;29;20767;-94
2023/11/08 08:42:19;;;;;;;2.80;1.65;;;9.10;99.90;;;;;;4007626;29;20194;-92
2023/11/08 08:44:20;;;;;;;2.38;0.93;;;9.00;99.90;;;;;;4029249;29;20335;-92
2023/11/08 08:46:23;;;;;;;20.52;1.40;;;9.00;99.90;;;;;;4028815;29;20182;-92
2023/11/08 08:48:26;;;;;;;1.75;0.88;;;9.00;99.90;;;;;;4031644;29;20211;-93
2023/11/08 08:50:30;;;;;;;2.60;1.38;;;9.00;99.90;;;;;;4106125;29;20683;-94
2023/11/08 08:52:33;;;;;;;2.28;0.85;;;9.00;99.90;;;;;;4091019;29;20194;-93
2023/11/08 08:54:35;;;;;;;2.00;1.05;;;9.00;99.90;;;;;;4091247;29;20191;-93
2023/11/08 08:56:37;;;;;;;1.17;0.80;;;9.10;99.90;;;;;;4106418;29;20186;-92
2023/11/08 08:58:38;;;;;;;1.83;1.00;;;9.10;99.90;;;;;;4090659;29;20580;-94
2023/11/08 09:00:38;;;;;;;1.60;0.93;;;9.10;99.90;;;;;;4089560;29;20215;-93
2023/11/08 09:02:39;;;;;;;1.08;0.80;;;9.00;99.90;;;;;;4098782;29;20253;-94
2023/11/08 09:04:41;;;;;;;5.50;1.45;;;9.00;99.90;;;;;;4089352;29;20274;-94
2023/11/08 09:06:45;;;;;;;3.85;1.10;;;8.90;99.90;;;;;;4091890;29;20655;-94
2023/11/08 09:08:59;;;;;;;2.05;1.13;;;9.00;99.90;;;;;;4090368;29;20211;-93
2023/11/08 09:11:20;;;;;;;1.50;1.10;;;9.30;99.90;;;;;;4120707;28;20186;-92
2023/11/08 09:13:21;;;;;;;3.78;0.98;;;9.60;99.90;;;;;;4105091;29;20187;-92
2023/11/08 09:15:22;;;;;;;5.30;1.17;;;9.60;99.90;;;;;;4107026;29;20166;-92
2023/11/08 09:17:33;;;;;;;4.40;1.10;;;10.00;99.90;;;;;;4105627;28;20207;-93
2023/11/08 09:19:39;;;;;;;2.67;1.35;;;9.70;99.90;;;;;;4106712;29;20245;-95
2023/11/08 09:21:40;;;;;;;4.43;1.77;;;9.50;99.90;;;;;;4107296;29;20183;-94
2023/11/08 09:23:46;;;;;;;5.55;1.58;;;9.70;99.90;;;;;;4090732;29;20243;-95
2023/11/08 09:25:47;;;;;;;3.15;1.33;;;9.70;99.90;;;;;;4106714;29;20191;-93
2023/11/08 09:27:56;;;;;;;2.65;0.90;;;9.80;99.90;;;;;;4106917;29;20222;-93
2023/11/08 09:30:04;;;;;;;9.38;1.92;;;9.90;99.90;;;;;;4107660;28;20179;-93
2023/11/08 09:32:06;;;;;;;7.43;1.40;;;9.90;99.90;;;;;;4105791;29;20183;-92
2023/11/08 09:34:10;;;;;;;2.15;1.00;;;9.80;99.90;;;;;;4090411;29;20179;-93
2023/11/08 09:36:21;;;;;;;0.98;0.68;;;9.60;99.90;;;;;;4106846;28;20542;-92
2023/11/08 09:38:27;;;;;;;5.78;2.40;;;9.70;99.90;;;;;;4089100;29;20203;-93
2023/11/08 09:40:46;;;;;;;2.85;1.13;;;9.60;99.90;;;;;;4104264;29;20183;-95
2023/11/08 09:42:50;;;;;;;3.80;1.20;;;9.70;99.90;;;;;;4105253;29;20273;-93
2023/11/08 09:45:09;;;;;;;5.60;1.13;;;9.80;99.90;;;;;;4105199;29;20218;-94
2023/11/08 09:47:28;;;;;;;1.23;0.90;;;10.00;99.90;;;;;;4105028;28;20513;-94
2023/11/08 09:49:29;;;;;;;5.80;1.35;;;10.10;99.90;;;;;;4106835;29;20596;-92
2023/11/08 09:51:31;;;;;;;3.92;1.20;;;10.40;99.90;;;;;;4089412;29;20345;-93
2023/11/08 09:53:32;;;;;;;3.20;1.17;;;10.50;99.90;;;;;;4104809;29;20187;-91
2023/11/08 09:55:33;;;;;;;2.10;0.82;;;10.50;99.90;;;;;;4104979;29;20183;-92
2023/11/08 09:57:39;;;;;;;7.45;1.90;;;10.40;99.90;;;;;;4104764;29;20250;-93
2023/11/08 09:59:41;;;;;;;2.35;0.80;;;10.20;99.90;;;;;;4105524;28;20195;-93
2023/11/08 10:01:46;;;;;;;1.75;0.98;;;10.10;99.90;;;;;;4089420;29;20195;-94
2023/11/08 10:03:47;;;;;;;2.60;1.13;;;10.10;99.90;;;;;;4105120;29;20726;-92
2023/11/08 10:05:53;;;;;;;1.63;1.13;;;10.20;99.90;;;;;;4105805;29;20243;-94
2023/11/08 10:07:57;;;;;;;3.28;0.90;;;10.30;99.90;;;;;;4089798;29;20214;-93
2023/11/08 10:09:57;;;;;;;1.83;0.75;;;10.40;99.90;;;;;;4105575;29;20175;-93
2023/11/08 10:12:00;;;;;;;0.57;0.43;;;10.40;99.90;;;;;;4106639;29;20615;-93
2023/11/08 10:14:31;;;;;;;5.53;0.85;;;10.40;99.90;;;;;;4106965;28;20163;-93
2023/11/08 10:16:46;;;;;;;1.85;0.88;;;10.50;99.90;;;;;;4105658;29;20182;-93
2023/11/08 10:19:07;;;;;;;0.88;0.50;;;10.50;99.90;;;;;;4105558;29;20195;-93
2023/11/08 10:21:31;;;;;;;4.68;0.55;;;10.60;99.90;;;;;;4117989;28;20181;-93
2023/11/08 10:23:32;;;;;;;1.20;0.70;;;10.60;99.90;;;;;;4124028;23;20316;-86
2023/11/08 10:25:33;;;;;;;1.02;0.45;;;10.60;99.90;;;;;;4132704;28;20185;-88
2023/11/08 10:27:35;;;;;;;1.92;0.95;;;10.60;99.90;;;;;;4116724;28;20289;-86
2023/11/08 10:29:35;;;;;;;0.55;0.30;;;10.50;99.90;;;;;;4148951;28;20188;-90
2023/11/08 10:31:43;;;;;;;4.88;0.60;;;10.50;99.90;;;;;;4116153;28;20182;-86
2023/11/08 10:33:59;;;;;;;3.80;1.13;;;10.60;99.90;;;;;;4122031;28;20701;-87
2023/11/08 10:36:01;;;;;;;0.50;0.30;;;10.60;99.90;;;;;;4100198;29;20183;-86
2023/11/08 10:38:05;;;;;;;3.22;0.50;;;10.60;99.90;;;;;;4116170;28;20706;-87
2023/11/08 10:40:08;;;;;;;1.90;0.50;;;10.60;99.90;;;;;;4100696;29;20186;-86
2023/11/08 10:42:09;;;;;;;1.05;0.47;;;10.70;99.90;;;;;;4100273;29;20183;-86
2023/11/08 10:44:12;;;;;;;2.17;0.90;;;10.80;99.90;;;;;;4085896;29;20215;-86
2023/11/08 10:46:13;;;;;;;3.55;0.80;;;10.90;99.90;;;;;;4100025;29;20187;-86
2023/11/08 10:48:14;;;;;;;1.33;0.30;;;11.00;99.90;;;;;;4100087;29;20209;-87
2023/11/08 10:50:16;;;;;;;3.20;0.60;;;11.00;99.90;;;;;;4084242;29;20188;-91
2023/11/08 10:52:20;;;;;;;1.92;0.57;;;11.20;99.90;;;;;;4084045;29;20648;-90
2023/11/08 10:54:21;;;;;;;1.13;0.32;;;11.20;99.90;;;;;;4098863;28;20209;-91
2023/11/08 10:56:25;;;;;;;0.57;0.40;;;11.40;99.90;;;;;;4100168;28;20270;-86
2023/11/08 10:58:35;;;;;;;1.05;0.30;;;11.40;99.90;;;;;;4099967;29;20278;-86
2023/11/08 11:00:37;;;;;;;5.65;0.35;;;11.30;99.90;;;;;;4116245;28;20265;-86
2023/11/08 11:02:45;;;;;;;4.10;0.47;;;11.40;99.90;;;;;;4099745;29;20187;-87
2023/11/08 11:04:51;;;;;;;1.00;0.60;;;11.30;99.90;;;;;;4099516;29;20274;-86
2023/11/08 11:06:54;;;;;;;4.68;0.60;;;11.30;99.90;;;;;;4099937;29;20187;-88
2023/11/08 11:08:57;;;;;;;1.67;0.50;;;11.30;99.90;;;;;;4084146;29;20231;-90
2023/11/08 11:10:58;;;;;;;4.53;0.52;;;11.30;99.90;;;;;;4099868;29;20221;-87
2023/11/08 11:13:12;;;;;;;1.98;0.55;;;11.40;99.90;;;;;;4103134;28;20554;-87
2023/11/08 11:15:46;;;;;;;6.90;1.42;;;11.40;99.90;;;;;;4099645;29;20451;-90
2023/11/08 11:17:58;;;;;;;4.43;0.50;;;11.30;99.90;;;;;;4090469;29;20272;-87
2023/11/08 11:20:10;;;;;;;2.92;0.30;;;11.40;99.90;;;;;;4101761;28;20198;-86
2023/11/08 11:22:15;;;;;;;5.80;0.70;;;11.40;99.90;;;;;;4131794;28;20188;-86
2023/11/08 11:24:48;;;;;;;0.50;0.20;;;11.40;99.90;;;;;;4131174;28;20298;-86
2023/11/08 11:26:49;;;;;;;3.65;0.52;;;11.20;99.90;;;;;;4104129;28;20590;-90
2023/11/08 11:28:55;;;;;;;1.20;0.55;;;11.20;99.90;;;;;;4099401;29;20297;-86
2023/11/08 11:31:32;;;;;;;11.43;0.30;;;11.00;99.90;;;;;;4099669;29;20214;-86
2023/11/08 11:33:34;;;;;;;0.63;0.30;;;11.10;99.90;;;;;;4131125;28;20213;-92
2023/11/08 11:35:35;;;;;;;2.83;0.43;;;10.90;99.90;;;;;;4100103;29;20179;-86
2023/11/08 11:37:36;;;;;;;3.50;0.52;;;10.90;99.90;;;;;;4132488;28;20224;-87
2023/11/08 11:39:39;;;;;;;4.05;0.77;;;10.80;99.90;;;;;;4099936;29;20175;-88
2023/11/08 11:41:41;;;;;;;0.40;0.40;;;10.80;99.90;;;;;;4098285;28;20642;-87
2023/11/08 11:43:43;;;;;;;3.33;0.65;;;10.80;99.90;;;;;;4115516;28;20205;-88
2023/11/08 11:45:43;;;;;;;4.53;0.50;;;10.90;99.90;;;;;;4099886;29;20178;-89
2023/11/08 11:47:50;;;;;;;1.00;0.68;;;10.90;99.90;;;;;;4087592;29;20211;-89
2023/11/08 11:49:52;;;;;;;0.80;0.60;;;10.90;99.90;;;;;;4100205;29;20656;-88
2023/11/08 11:51:52;;;;;;;1.75;0.90;;;10.80;99.90;;;;;;4083915;29;20183;-92
2023/11/08 11:53:53;;;;;;;1.83;0.60;;;10.90;99.90;;;;;;4111489;28;20225;-87
2023/11/08 11:56:07;;;;;;;1.48;0.45;;;10.80;99.90;;;;;;4115730;28;20219;-87
2023/11/08 11:58:11;;;;;;;1.38;0.47;;;10.80;99.90;;;;;;4114677;28;20210;-86
2023/11/08 12:00:13;;;;;;;3.33;0.90;;;10.70;99.90;;;;;;4114345;28;20261;-86
2023/11/08 12:02:14;;;;;;;2.97;0.20;;;10.70;99.90;;;;;;4099104;29;20190;-93
2023/11/08 12:04:21;;;;;;;0.57;0.28;;;10.50;99.90;;;;;;4115506;28;20691;-93
2023/11/08 12:06:21;;;;;;;6.30;0.40;;;10.50;99.90;;;;;;4116341;28;20178;-91
2023/11/08 12:08:27;;;;;;;1.50;0.50;;;10.50;99.90;;;;;;4098928;29;20708;-87
2023/11/08 12:10:29;;;;;;;2.92;0.70;;;10.50;99.90;;;;;;4099727;29;20229;-87
2023/11/08 12:12:35;;;;;;;2.17;0.68;;;10.40;99.90;;;;;;4135854;28;20316;-91
2023/11/08 12:14:49;;;;;;;3.15;0.40;;;10.40;99.90;;;;;;4100941;29;20195;-89
2023/11/08 12:16:50;;;;;;;2.15;0.73;;;10.40;99.90;;;;;;4114653;28;21003;-89
2023/11/08 12:18:51;;;;;;;1.73;0.73;;;10.40;99.90;;;;;;4114837;28;20198;-88
2023/11/08 12:20:52;;;;;;;1.75;0.50;;;10.50;99.90;;;;;;4098458;29;20349;-92
2023/11/08 12:22:53;;;;;;;1.58;0.60;;;10.60;99.90;;;;;;4114714;28;20314;-87
2023/11/08 12:24:56;;;;;;;1.30;0.30;;;10.70;99.90;;;;;;4098797;29;20222;-87
2023/11/08 12:26:57;;;;;;;0.20;0.20;;;10.80;99.90;;;;;;4098797;28;20651;-88
2023/11/08 12:28:58;;;;;;;2.28;0.80;;;10.70;99.90;;;;;;4098846;29;20207;-90
2023/11/08 12:31:06;;;;;;;1.88;0.90;;;10.90;99.90;;;;;;4115161;28;20234;-92
2023/11/08 12:33:07;;;;;;;0.82;0.38;;;10.80;99.90;;;;;;4115123;28;20190;-89
2023/11/08 12:35:10;;;;;;;1.45;0.60;;;10.90;99.90;;;;;;4115574;28;20186;-86
2023/11/08 12:37:12;;;;;;;0.95;0.60;;;10.80;99.90;;;;;;4114752;28;20233;-91
2023/11/08 12:39:25;;;;;;;1.55;0.70;;;10.80;99.90;;;;;;4115476;28;20270;-86
2023/11/08 12:41:49;;;;;;;0.95;0.40;;;10.90;99.90;;;;;;4098560;28;20202;-90
2023/11/08 12:43:57;;;;;;;4.68;0.88;;;10.90;99.90;;;;;;4114372;28;20226;-88
2023/11/08 12:46:11;;;;;;;3.85;1.05;;;10.80;99.90;;;;;;4098536;29;20182;-88
2023/11/08 12:48:14;;;;;;;1.23;0.35;;;11.00;99.90;;;;;;4114561;28;20210;-90
2023/11/08 12:50:15;;;;;;;2.15;0.57;;;11.00;99.90;;;;;;4097939;29;20267;-93
2023/11/08 12:52:20;;;;;;;2.05;0.60;;;11.00;99.90;;;;;;4114650;28;20189;-92
2023/11/08 12:54:22;;;;;;;3.22;0.70;;;11.00;99.90;;;;;;4101607;29;20265;-86
2023/11/08 12:56:23;;;;;;;1.48;0.60;;;11.00;99.90;;;;;;4117188;28;20236;-91
2023/11/08 12:58:29;;;;;;;18.05;0.77;;;11.00;99.90;;;;;;4117774;28;20190;-89
2023/11/08 13:00:42;;;;;;;0.40;0.35;;;11.10;99.90;;;;;;4102235;28;20277;-90
2023/11/08 13:02:56;;;;;;;1.13;0.43;;;11.10;99.90;;;;;;4118532;28;20181;-91
2023/11/08 13:05:00;;;;;;;4.50;0.98;;;11.20;99.90;;;;;;4102085;28;20227;-90
2023/11/08 13:07:01;;;;;;;0.10;0.10;;;11.10;99.90;;;;;;4101940;29;20183;-91
2023/11/08 13:09:05;;;;;;;3.75;0.60;;;11.10;99.90;;;;;;4101423;29;20187;-90
2023/11/08 13:11:06;;;;;;;1.30;0.50;;;11.20;99.90;;;;;;4100367;28;20427;-86
2023/11/08 13:13:07;;;;;;;1.00;0.47;;;11.10;99.90;;;;;;4116559;28;20639;-88
2023/11/08 13:15:08;;;;;;;1.15;0.30;;;11.10;99.90;;;;;;4117501;28;20186;-93
2023/11/08 13:17:11;;;;;;;1.27;0.68;;;11.00;99.90;;;;;;4101489;29;20179;-93
2023/11/08 13:19:12;;;;;;;0.38;0.30;;;11.00;99.90;;;;;;4103046;29;20383;-86
2023/11/08 13:21:12;;;;;;;6.18;0.52;;;11.00;99.90;;;;;;4136706;28;20174;-94
2023/11/08 13:23:13;;;;;;;3.00;0.60;;;11.00;99.90;;;;;;4102164;29;20286;-88
2023/11/08 13:25:14;;;;;;;3.15;0.32;;;11.00;99.90;;;;;;4119375;28;20273;-90
2023/11/08 13:27:15;;;;;;;1.27;0.80;;;10.90;99.90;;;;;;4100942;29;20183;-89
2023/11/08 13:29:15;;;;;;;7.32;1.10;;;10.90;99.90;;;;;;4102593;29;20691;-87
2023/11/08 13:31:17;;;;;;;0.55;0.40;;;10.90;99.90;;;;;;4118019;28;20173;-88
2023/11/08 13:33:18;;;;;;;1.27;0.75;;;10.80;99.90;;;;;;4118735;28;20182;-87
2023/11/08 13:35:19;;;;;;;3.78;0.50;;;10.70;99.90;;;;;;4102029;29;20182;-87
2023/11/08 13:37:20;;;;;;;0.70;0.52;;;10.70;99.90;;;;;;4101961;29;20186;-91
2023/11/08 13:39:22;;;;;;;0.30;0.30;;;10.50;99.90;;;;;;4104285;28;20695;-94
2023/11/08 13:41:23;;;;;;;0.95;0.52;;;10.60;99.90;;;;;;4085750;29;20199;-88
2023/11/08 13:43:25;;;;;;;5.38;0.57;;;10.70;99.90;;;;;;4101238;29;20179;-89
2023/11/08 13:45:25;;;;;;;0.90;0.60;;;10.60;99.90;;;;;;4101358;29;20259;-88
2023/11/08 13:47:27;;;;;;;0.50;0.40;;;10.70;99.90;;;;;;4100701;29;20285;-87
2023/11/08 13:49:28;;;;;;;2.95;0.35;;;10.70;99.90;;;;;;4100220;29;20194;-88
2023/11/08 13:51:29;;;;;;;4.47;1.27;;;10.70;99.90;;;;;;4101379;28;20639;-87
2023/11/08 13:53:29;;;;;;;1.08;0.80;;;10.70;99.90;;;;;;4101766;29;20187;-91
2023/11/08 13:55:30;;;;;;;1.50;0.60;;;10.70;99.90;;;;;;4117171;28;20672;-88
2023/11/08 13:57:32;;;;;;;0.17;0.08;;;10.70;99.90;;;;;;4101032;28;20199;-89
2023/11/08 13:59:33;;;;;;;1.65;0.45;;;10.60;99.90;;;;;;4117572;28;20182;-94
2023/11/08 14:01:33;;;;;;;1.63;0.50;;;10.60;99.90;;;;;;4101042;28;20289;-93
2023/11/08 14:03:35;;;;;;;0.20;0.20;;;10.50;99.90;;;;;;4101653;29;20226;-96
2023/11/08 14:05:35;;;;;;;0.47;0.32;;;10.50;99.90;;;;;;4118065;28;20222;-89
2023/11/08 14:07:37;;;;;;;0.80;0.38;;;10.50;99.90;;;;;;4117863;28;20710;-89
2023/11/08 14:09:38;;;;;;;0.32;0.25;;;10.40;99.90;;;;;;4102939;29;20178;-94
2023/11/08 14:11:38;;;;;;;4.78;0.77;;;10.30;99.90;;;;;;4101607;29;20190;-87
2023/11/08 14:13:39;;;;;;;3.10;0.32;;;10.20;99.90;;;;;;4103149;29;20194;-87
2023/11/08 14:15:40;;;;;;;0.17;0.17;;;10.20;99.90;;;;;;4102162;29;20186;-91
2023/11/08 14:17:41;;;;;;;1.67;0.75;;;10.20;99.90;;;;;;4117471;28;20209;-90
2023/11/08 14:19:41;;;;;;;2.38;0.40;;;10.10;99.90;;;;;;4102670;28;20183;-88
2023/11/08 14:21:42;;;;;;;0.38;0.20;;;10.10;99.90;;;;;;4101868;29;20222;-94
2023/11/08 14:23:43;;;;;;;0.40;0.22;;;10.10;99.90;;;;;;4101536;28;20215;-87
2023/11/08 14:25:43;;;;;;;0.63;0.35;;;10.10;99.90;;;;;;4106561;28;20190;-91
2023/11/08 14:27:45;;;;;;;1.20;0.57;;;10.00;99.90;;;;;;4102914;29;20563;-93
2023/11/08 14:29:46;;;;;;;3.58;1.33;;;10.10;99.90;;;;;;4100704;29;20187;-94
2023/11/08 14:31:46;;;;;;;3.50;1.27;;;10.10;99.90;;;;;;4116600;28;20249;-91
2023/11/08 14:33:47;;;;;;;5.88;1.48;;;10.20;99.90;;;;;;4101321;29;20187;-88
2023/11/08 14:35:49;;;;;;;4.90;1.38;;;10.20;99.90;;;;;;4101702;29;20190;-91
2023/11/08 14:37:49;;;;;;;7.90;1.10;;;10.20;99.90;;;;;;4100956;29;20675;-90
2023/11/08 14:39:50;;;;;;;5.07;1.77;;;10.30;99.90;;;;;;4116835;28;20278;-88
2023/11/08 14:41:51;;;;;;;5.93;1.27;;;10.30;99.90;;;;;;4117700;28;20253;-90
2023/11/08 14:43:52;;;;;;;2.33;1.38;;;10.20;99.90;;;;;;4102750;28;20219;-94
2023/11/08 14:45:53;;;;;;;12.45;2.03;;;10.20;99.90;;;;;;4100528;29;20193;-88
2023/11/08 14:47:54;;;;;;;7.60;1.73;;;10.10;99.90;;;;;;4102470;29;20286;-87